sensor_id;sensor_type;location;lat;lon;timestamp;pressure;altitude;pressure_sealevel;temperature;humidity
39411;BME280;26579;43.238;23.124;2023-07-29T00:00:43;96766.41;;;21.56;48.95
39411;BME280;26579;43.238;23.124;2023-07-29T00:03:09;96773.34;;;21.57;48.97
39411;BME280;26579;43.238;23.124;2023-07-29T00:05:37;96771.03;;;21.40;49.25
39411;BME280;26579;43.238;23.124;2023-07-29T00:08:03;96780.00;;;21.39;49.29
39411;BME280;26579;43.238;23.124;2023-07-29T00:10:30;96791.97;;;21.35;49.45
39411;BME280;26579;43.238;23.124;2023-07-29T00:12:56;96777.47;;;21.31;49.56
39411;BME280;26579;43.238;23.124;2023-07-29T00:15:22;96788.47;;;21.35;49.67
39411;BME280;26579;43.238;23.124;2023-07-29T00:17:48;96784.22;;;21.34;49.54
39411;BME280;26579;43.238;23.124;2023-07-29T00:20:13;96792.03;;;21.42;49.60
39411;BME280;26579;43.238;23.124;2023-07-29T00:22:39;96781.00;;;21.38;49.53
39411;BME280;26579;43.238;23.124;2023-07-29T00:25:05;96792.16;;;21.34;49.19
39411;BME280;26579;43.238;23.124;2023-07-29T00:27:31;96792.78;;;21.36;49.47
39411;BME280;26579;43.238;23.124;2023-07-29T00:29:56;96783.03;;;21.36;49.18
39411;BME280;26579;43.238;23.124;2023-07-29T00:32:22;96797.09;;;21.37;49.39
39411;BME280;26579;43.238;23.124;2023-07-29T00:34:48;96794.44;;;21.37;49.23
39411;BME280;26579;43.238;23.124;2023-07-29T00:37:13;96788.13;;;21.38;48.84
39411;BME280;26579;43.238;23.124;2023-07-29T00:39:39;96809.31;;;21.38;48.99
39411;BME280;26579;43.238;23.124;2023-07-29T00:42:06;96795.47;;;21.42;48.61
39411;BME280;26579;43.238;23.124;2023-07-29T00:44:32;96799.59;;;21.52;48.73
39411;BME280;26579;43.238;23.124;2023-07-29T00:47:02;96798.38;;;21.47;48.98
39411;BME280;26579;43.238;23.124;2023-07-29T00:49:30;96785.53;;;21.44;48.93
39411;BME280;26579;43.238;23.124;2023-07-29T00:51:56;96783.47;;;21.46;48.92
39411;BME280;26579;43.238;23.124;2023-07-29T00:54:24;96789.81;;;21.52;49.34
39411;BME280;26579;43.238;23.124;2023-07-29T00:56:50;96768.78;;;21.37;48.89
39411;BME280;26579;43.238;23.124;2023-07-29T00:59:16;96786.34;;;21.45;49.32
39411;BME280;26579;43.238;23.124;2023-07-29T01:01:42;96779.38;;;21.37;49.05
39411;BME280;26579;43.238;23.124;2023-07-29T01:04:08;96787.34;;;21.44;49.06
39411;BME280;26579;43.238;23.124;2023-07-29T01:06:53;96788.75;;;21.46;49.21
39411;BME280;26579;43.238;23.124;2023-07-29T01:09:33;96783.66;;;21.38;49.64
39411;BME280;26579;43.238;23.124;2023-07-29T01:12:21;96772.78;;;21.27;49.85
39411;BME280;26579;43.238;23.124;2023-07-29T01:15:07;96782.34;;;21.28;49.87
39411;BME280;26579;43.238;23.124;2023-07-29T01:17:46;96780.72;;;21.27;49.79
39411;BME280;26579;43.238;23.124;2023-07-29T01:20:17;96778.66;;;21.22;49.88
39411;BME280;26579;43.238;23.124;2023-07-29T01:22:44;96782.13;;;21.22;49.47
39411;BME280;26579;43.238;23.124;2023-07-29T01:25:10;96785.41;;;21.24;50.20
39411;BME280;26579;43.238;23.124;2023-07-29T01:27:36;96783.16;;;21.21;50.24
39411;BME280;26579;43.238;23.124;2023-07-29T01:30:02;96780.03;;;21.11;50.37
39411;BME280;26579;43.238;23.124;2023-07-29T01:32:50;96794.53;;;21.15;50.35
39411;BME280;26579;43.238;23.124;2023-07-29T01:35:28;96785.38;;;21.18;50.42
39411;BME280;26579;43.238;23.124;2023-07-29T01:38:09;96794.31;;;21.17;50.41
39411;BME280;26579;43.238;23.124;2023-07-29T01:40:36;96778.81;;;21.14;50.38
39411;BME280;26579;43.238;23.124;2023-07-29T01:43:02;96780.88;;;21.18;50.39
39411;BME280;26579;43.238;23.124;2023-07-29T01:45:28;96781.50;;;21.20;50.08
39411;BME280;26579;43.238;23.124;2023-07-29T01:47:54;96785.16;;;21.19;50.40
39411;BME280;26579;43.238;23.124;2023-07-29T01:50:20;96784.53;;;21.17;50.25
39411;BME280;26579;43.238;23.124;2023-07-29T01:52:46;96777.78;;;21.08;50.46
39411;BME280;26579;43.238;23.124;2023-07-29T01:55:12;96770.03;;;21.07;50.74
39411;BME280;26579;43.238;23.124;2023-07-29T01:57:37;96772.47;;;21.08;50.96
39411;BME280;26579;43.238;23.124;2023-07-29T02:00:03;96770.22;;;21.05;50.83
39411;BME280;26579;43.238;23.124;2023-07-29T02:02:40;96772.19;;;20.90;50.93
39411;BME280;26579;43.238;23.124;2023-07-29T02:05:06;96778.31;;;20.97;50.68
39411;BME280;26579;43.238;23.124;2023-07-29T02:07:32;96780.38;;;21.01;51.10
39411;BME280;26579;43.238;23.124;2023-07-29T02:09:58;96776.53;;;21.04;50.87
39411;BME280;26579;43.238;23.124;2023-07-29T02:12:23;96771.63;;;21.01;51.15
39411;BME280;26579;43.238;23.124;2023-07-29T02:14:49;96768.19;;;21.00;51.15
39411;BME280;26579;43.238;23.124;2023-07-29T02:17:15;96777.97;;;21.07;50.69
39411;BME280;26579;43.238;23.124;2023-07-29T02:19:41;96773.53;;;21.14;50.64
39411;BME280;26579;43.238;23.124;2023-07-29T02:22:06;96769.81;;;21.01;50.91
39411;BME280;26579;43.238;23.124;2023-07-29T02:24:32;96781.19;;;21.02;50.95
39411;BME280;26579;43.238;23.124;2023-07-29T02:26:58;96779.16;;;20.97;50.94
39411;BME280;26579;43.238;23.124;2023-07-29T02:29:23;96773.41;;;20.94;50.83
39411;BME280;26579;43.238;23.124;2023-07-29T02:31:49;96779.75;;;20.99;50.91
39411;BME280;26579;43.238;23.124;2023-07-29T02:34:15;96789.75;;;20.97;51.14
39411;BME280;26579;43.238;23.124;2023-07-29T02:36:41;96791.75;;;20.95;51.30
39411;BME280;26579;43.238;23.124;2023-07-29T02:39:06;96789.28;;;20.94;51.15
39411;BME280;26579;43.238;23.124;2023-07-29T02:41:32;96776.59;;;20.83;51.17
39411;BME280;26579;43.238;23.124;2023-07-29T02:43:58;96783.53;;;20.84;51.30
39411;BME280;26579;43.238;23.124;2023-07-29T02:46:24;96793.97;;;20.92;51.37
39411;BME280;26579;43.238;23.124;2023-07-29T02:48:50;96793.97;;;20.92;51.38
39411;BME280;26579;43.238;23.124;2023-07-29T02:51:16;96780.09;;;20.83;51.40
39411;BME280;26579;43.238;23.124;2023-07-29T02:53:41;96791.94;;;20.94;51.47
39411;BME280;26579;43.238;23.124;2023-07-29T02:56:07;96779.88;;;20.85;51.28
39411;BME280;26579;43.238;23.124;2023-07-29T02:58:33;96793.69;;;20.80;51.36
39411;BME280;26579;43.238;23.124;2023-07-29T03:01:03;96784.88;;;20.73;51.70
39411;BME280;26579;43.238;23.124;2023-07-29T03:03:29;96782.44;;;20.71;51.62
39411;BME280;26579;43.238;23.124;2023-07-29T03:08:25;96790.22;;;20.79;51.79
39411;BME280;26579;43.238;23.124;2023-07-29T03:10:51;96796.16;;;20.88;51.62
39411;BME280;26579;43.238;23.124;2023-07-29T03:13:16;96785.94;;;20.78;51.89
39411;BME280;26579;43.238;23.124;2023-07-29T03:15:42;96784.50;;;20.76;51.86
39411;BME280;26579;43.238;23.124;2023-07-29T03:18:08;96795.31;;;20.81;51.84
39411;BME280;26579;43.238;23.124;2023-07-29T03:20:34;96787.97;;;20.76;51.73
39411;BME280;26579;43.238;23.124;2023-07-29T03:22:59;96801.03;;;20.85;51.56
39411;BME280;26579;43.238;23.124;2023-07-29T03:25:25;96797.75;;;20.83;52.13
39411;BME280;26579;43.238;23.124;2023-07-29T03:27:51;96788.84;;;20.84;51.54
39411;BME280;26579;43.238;23.124;2023-07-29T03:30:20;96796.13;;;20.82;51.66
39411;BME280;26579;43.238;23.124;2023-07-29T03:32:46;96798.38;;;20.78;51.77
39411;BME280;26579;43.238;23.124;2023-07-29T03:35:12;96809.63;;;20.87;51.75
39411;BME280;26579;43.238;23.124;2023-07-29T03:37:37;96797.94;;;20.74;52.11
39411;BME280;26579;43.238;23.124;2023-07-29T03:40:03;96812.44;;;20.85;52.06
39411;BME280;26579;43.238;23.124;2023-07-29T03:42:29;96793.63;;;20.73;52.12
39411;BME280;26579;43.238;23.124;2023-07-29T03:44:55;96793.03;;;20.71;52.03
39411;BME280;26579;43.238;23.124;2023-07-29T03:47:20;96802.38;;;20.74;52.38
39411;BME280;26579;43.238;23.124;2023-07-29T03:49:46;96811.97;;;20.75;51.99
39411;BME280;26579;43.238;23.124;2023-07-29T03:52:14;96807.09;;;20.78;52.12
39411;BME280;26579;43.238;23.124;2023-07-29T03:54:39;96806.84;;;20.73;52.28
39411;BME280;26579;43.238;23.124;2023-07-29T03:57:05;96807.75;;;20.80;52.11
39411;BME280;26579;43.238;23.124;2023-07-29T03:59:31;96810.38;;;20.80;52.04
39411;BME280;26579;43.238;23.124;2023-07-29T04:01:57;96806.75;;;20.88;52.05
39411;BME280;26579;43.238;23.124;2023-07-29T04:04:22;96807.09;;;20.78;52.19
39411;BME280;26579;43.238;23.124;2023-07-29T04:06:48;96796.38;;;20.87;52.12
39411;BME280;26579;43.238;23.124;2023-07-29T04:09:14;96813.50;;;20.91;52.17
39411;BME280;26579;43.238;23.124;2023-07-29T04:11:40;96809.25;;;20.96;52.64
39411;BME280;26579;43.238;23.124;2023-07-29T04:14:05;96804.56;;;20.92;52.56
39411;BME280;26579;43.238;23.124;2023-07-29T04:16:31;96815.19;;;20.98;52.61
39411;BME280;26579;43.238;23.124;2023-07-29T04:18:57;96804.22;;;21.01;52.64
39411;BME280;26579;43.238;23.124;2023-07-29T04:21:22;96798.34;;;21.06;52.76
39411;BME280;26579;43.238;23.124;2023-07-29T04:23:48;96801.19;;;21.11;52.70
39411;BME280;26579;43.238;23.124;2023-07-29T04:26:14;96806.56;;;21.18;52.44
39411;BME280;26579;43.238;23.124;2023-07-29T04:28:40;96802.88;;;21.19;52.98
39411;BME280;26579;43.238;23.124;2023-07-29T04:31:05;96804.16;;;21.30;52.96
39411;BME280;26579;43.238;23.124;2023-07-29T04:33:31;96785.41;;;21.24;53.21
39411;BME280;26579;43.238;23.124;2023-07-29T04:35:57;96794.00;;;21.33;53.29
39411;BME280;26579;43.238;23.124;2023-07-29T04:38:30;96802.44;;;21.50;52.83
39411;BME280;26579;43.238;23.124;2023-07-29T04:40:56;96801.81;;;21.48;53.41
39411;BME280;26579;43.238;23.124;2023-07-29T04:43:22;96797.16;;;21.50;53.46
39411;BME280;26579;43.238;23.124;2023-07-29T04:45:48;96803.69;;;21.61;53.46
39411;BME280;26579;43.238;23.124;2023-07-29T04:48:13;96800.28;;;21.74;53.22
39411;BME280;26579;43.238;23.124;2023-07-29T04:50:39;96798.69;;;21.79;53.16
39411;BME280;26579;43.238;23.124;2023-07-29T04:53:05;96806.06;;;21.90;53.19
39411;BME280;26579;43.238;23.124;2023-07-29T04:55:31;96816.03;;;22.02;53.15
39411;BME280;26579;43.238;23.124;2023-07-29T04:57:57;96802.78;;;22.02;53.16
39411;BME280;26579;43.238;23.124;2023-07-29T05:00:22;96812.63;;;22.14;53.50
39411;BME280;26579;43.238;23.124;2023-07-29T05:02:48;96813.06;;;22.18;53.82
39411;BME280;26579;43.238;23.124;2023-07-29T05:05:13;96812.66;;;22.28;53.67
39411;BME280;26579;43.238;23.124;2023-07-29T05:07:39;96819.59;;;22.35;53.42
39411;BME280;26579;43.238;23.124;2023-07-29T05:10:05;96812.25;;;22.44;52.96
39411;BME280;26579;43.238;23.124;2023-07-29T05:12:31;96809.81;;;22.49;53.04
39411;BME280;26579;43.238;23.124;2023-07-29T05:14:57;96814.31;;;22.62;52.47
39411;BME280;26579;43.238;23.124;2023-07-29T05:17:23;96821.84;;;22.78;52.32
39411;BME280;26579;43.238;23.124;2023-07-29T05:19:48;96823.88;;;22.83;52.34
39411;BME280;26579;43.238;23.124;2023-07-29T05:22:14;96808.56;;;22.92;52.02
39411;BME280;26579;43.238;23.124;2023-07-29T05:24:40;96813.47;;;23.08;51.25
39411;BME280;26579;43.238;23.124;2023-07-29T05:27:06;96823.44;;;23.26;51.19
39411;BME280;26579;43.238;23.124;2023-07-29T05:29:32;96825.03;;;23.40;50.59
39411;BME280;26579;43.238;23.124;2023-07-29T05:31:58;96822.34;;;23.54;49.80
39411;BME280;26579;43.238;23.124;2023-07-29T05:34:23;96823.06;;;23.67;49.26
39411;BME280;26579;43.238;23.124;2023-07-29T05:36:49;96826.53;;;23.81;49.13
39411;BME280;26579;43.238;23.124;2023-07-29T05:39:15;96823.19;;;23.92;49.14
39411;BME280;26579;43.238;23.124;2023-07-29T05:41:40;96814.41;;;23.92;48.38
39411;BME280;26579;43.238;23.124;2023-07-29T05:44:06;96824.31;;;24.10;47.92
39411;BME280;26579;43.238;23.124;2023-07-29T05:46:32;96826.06;;;24.23;48.18
39411;BME280;26579;43.238;23.124;2023-07-29T05:48:57;96838.50;;;24.35;47.60
39411;BME280;26579;43.238;23.124;2023-07-29T05:51:23;96837.59;;;24.48;47.35
39411;BME280;26579;43.238;23.124;2023-07-29T05:53:51;96831.38;;;24.61;46.37
39411;BME280;26579;43.238;23.124;2023-07-29T05:56:17;96825.31;;;24.72;45.19
39411;BME280;26579;43.238;23.124;2023-07-29T05:58:43;96825.66;;;24.82;42.90
39411;BME280;26579;43.238;23.124;2023-07-29T06:01:09;96827.78;;;24.99;43.88
39411;BME280;26579;43.238;23.124;2023-07-29T06:03:35;96831.53;;;25.10;45.17
39411;BME280;26579;43.238;23.124;2023-07-29T06:06:01;96820.88;;;25.16;46.61
39411;BME280;26579;43.238;23.124;2023-07-29T06:08:26;96828.94;;;25.28;46.87
39411;BME280;26579;43.238;23.124;2023-07-29T06:10:52;96843.31;;;25.45;47.04
39411;BME280;26579;43.238;23.124;2023-07-29T06:13:18;96833.97;;;25.55;47.07
39411;BME280;26579;43.238;23.124;2023-07-29T06:15:43;96829.16;;;25.63;45.96
39411;BME280;26579;43.238;23.124;2023-07-29T06:18:09;96809.31;;;25.59;44.33
39411;BME280;26579;43.238;23.124;2023-07-29T06:20:35;96812.84;;;25.71;44.73
39411;BME280;26579;43.238;23.124;2023-07-29T06:23:01;96823.97;;;25.87;43.15
39411;BME280;26579;43.238;23.124;2023-07-29T06:25:27;96818.88;;;25.97;41.73
39411;BME280;26579;43.238;23.124;2023-07-29T06:27:52;96829.38;;;26.10;41.82
39411;BME280;26579;43.238;23.124;2023-07-29T06:30:18;96827.66;;;26.16;41.38
39411;BME280;26579;43.238;23.124;2023-07-29T06:32:44;96821.53;;;26.15;39.78
39411;BME280;26579;43.238;23.124;2023-07-29T06:35:09;96824.44;;;26.26;39.75
39411;BME280;26579;43.238;23.124;2023-07-29T06:37:35;96831.22;;;26.40;38.81
39411;BME280;26579;43.238;23.124;2023-07-29T06:40:01;96824.34;;;26.44;39.19
39411;BME280;26579;43.238;23.124;2023-07-29T06:42:27;96822.88;;;26.48;40.04
39411;BME280;26579;43.238;23.124;2023-07-29T06:44:53;96823.69;;;26.49;40.28
39411;BME280;26579;43.238;23.124;2023-07-29T06:47:18;96824.44;;;26.56;41.16
39411;BME280;26579;43.238;23.124;2023-07-29T06:49:45;96826.41;;;26.60;40.72
39411;BME280;26579;43.238;23.124;2023-07-29T06:52:11;96832.34;;;26.62;41.88
39411;BME280;26579;43.238;23.124;2023-07-29T06:54:37;96835.13;;;26.68;39.50
39411;BME280;26579;43.238;23.124;2023-07-29T06:57:02;96839.09;;;26.77;39.40
39411;BME280;26579;43.238;23.124;2023-07-29T06:59:28;96835.94;;;26.80;38.45
39411;BME280;26579;43.238;23.124;2023-07-29T07:01:54;96839.31;;;26.87;38.59
39411;BME280;26579;43.238;23.124;2023-07-29T07:04:20;96833.97;;;26.99;39.08
39411;BME280;26579;43.238;23.124;2023-07-29T07:06:45;96828.88;;;26.97;37.56
39411;BME280;26579;43.238;23.124;2023-07-29T07:09:11;96829.56;;;26.93;37.80
39411;BME280;26579;43.238;23.124;2023-07-29T07:11:37;96829.09;;;26.96;36.47
39411;BME280;26579;43.238;23.124;2023-07-29T07:14:02;96838.38;;;27.05;37.02
39411;BME280;26579;43.238;23.124;2023-07-29T07:16:28;96835.72;;;27.17;36.16
39411;BME280;26579;43.238;23.124;2023-07-29T07:18:54;96829.69;;;27.33;35.75
39411;BME280;26579;43.238;23.124;2023-07-29T07:21:19;96833.41;;;27.44;34.30
39411;BME280;26579;43.238;23.124;2023-07-29T07:23:45;96824.44;;;27.50;34.39
39411;BME280;26579;43.238;23.124;2023-07-29T07:26:13;96835.56;;;27.59;34.89
39411;BME280;26579;43.238;23.124;2023-07-29T07:28:44;96828.81;;;27.68;35.18
39411;BME280;26579;43.238;23.124;2023-07-29T07:31:10;96832.28;;;27.68;35.38
39411;BME280;26579;43.238;23.124;2023-07-29T07:33:35;96826.13;;;27.68;36.18
39411;BME280;26579;43.238;23.124;2023-07-29T07:36:01;96835.88;;;27.86;35.91
39411;BME280;26579;43.238;23.124;2023-07-29T07:38:27;96829.44;;;27.98;37.13
39411;BME280;26579;43.238;23.124;2023-07-29T07:40:54;96837.88;;;28.07;37.50
39411;BME280;26579;43.238;23.124;2023-07-29T07:43:20;96828.69;;;28.03;37.53
39411;BME280;26579;43.238;23.124;2023-07-29T07:45:45;96835.53;;;28.11;35.88
39411;BME280;26579;43.238;23.124;2023-07-29T07:48:11;96838.38;;;28.21;36.21
39411;BME280;26579;43.238;23.124;2023-07-29T07:50:37;96829.25;;;28.34;33.75
39411;BME280;26579;43.238;23.124;2023-07-29T07:53:02;96830.13;;;28.51;33.96
39411;BME280;26579;43.238;23.124;2023-07-29T07:55:28;96838.88;;;28.63;33.40
39411;BME280;26579;43.238;23.124;2023-07-29T07:57:54;96839.53;;;28.71;33.11
39411;BME280;26579;43.238;23.124;2023-07-29T08:00:19;96824.19;;;28.83;32.96
39411;BME280;26579;43.238;23.124;2023-07-29T08:02:45;96830.50;;;28.94;32.87
39411;BME280;26579;43.238;23.124;2023-07-29T08:05:11;96819.06;;;28.98;31.24
39411;BME280;26579;43.238;23.124;2023-07-29T08:07:36;96823.53;;;29.09;30.94
39411;BME280;26579;43.238;23.124;2023-07-29T08:10:02;96813.72;;;29.15;30.23
39411;BME280;26579;43.238;23.124;2023-07-29T08:12:28;96827.31;;;29.30;30.92
39411;BME280;26579;43.238;23.124;2023-07-29T08:14:53;96821.44;;;29.33;31.18
39411;BME280;26579;43.238;23.124;2023-07-29T08:17:19;96826.63;;;29.40;31.23
39411;BME280;26579;43.238;23.124;2023-07-29T08:19:45;96817.78;;;29.40;31.61
39411;BME280;26579;43.238;23.124;2023-07-29T08:22:10;96823.81;;;29.52;31.15
39411;BME280;26579;43.238;23.124;2023-07-29T08:24:36;96826.69;;;29.62;30.88
39411;BME280;26579;43.238;23.124;2023-07-29T08:27:02;96818.63;;;29.62;31.29
39411;BME280;26579;43.238;23.124;2023-07-29T08:29:27;96824.09;;;29.72;30.78
39411;BME280;26579;43.238;23.124;2023-07-29T08:31:53;96821.63;;;29.66;31.32
39411;BME280;26579;43.238;23.124;2023-07-29T08:34:18;96809.97;;;29.60;31.55
39411;BME280;26579;43.238;23.124;2023-07-29T08:36:44;96801.53;;;29.68;31.57
39411;BME280;26579;43.238;23.124;2023-07-29T08:39:10;96818.94;;;29.88;30.25
39411;BME280;26579;43.238;23.124;2023-07-29T08:41:51;96809.53;;;29.90;30.67
39411;BME280;26579;43.238;23.124;2023-07-29T08:44:24;96792.03;;;29.83;30.66
39411;BME280;26579;43.238;23.124;2023-07-29T08:46:51;96807.56;;;30.08;32.15
39411;BME280;26579;43.238;23.124;2023-07-29T08:49:18;96800.50;;;29.96;30.10
39411;BME280;26579;43.238;23.124;2023-07-29T08:51:44;96787.94;;;30.02;30.80
39411;BME280;26579;43.238;23.124;2023-07-29T08:54:11;96796.34;;;30.11;30.70
39411;BME280;26579;43.238;23.124;2023-07-29T08:56:36;96793.78;;;30.21;31.47
39411;BME280;26579;43.238;23.124;2023-07-29T08:59:02;96802.66;;;30.21;30.50
39411;BME280;26579;43.238;23.124;2023-07-29T09:01:28;96808.31;;;30.25;30.56
39411;BME280;26579;43.238;23.124;2023-07-29T09:03:54;96795.41;;;30.22;31.33
39411;BME280;26579;43.238;23.124;2023-07-29T09:06:20;96804.13;;;30.34;31.13
39411;BME280;26579;43.238;23.124;2023-07-29T09:08:49;96796.38;;;30.16;30.66
39411;BME280;26579;43.238;23.124;2023-07-29T09:11:16;96807.91;;;30.11;30.86
39411;BME280;26579;43.238;23.124;2023-07-29T09:13:42;96800.09;;;30.10;30.91
39411;BME280;26579;43.238;23.124;2023-07-29T09:16:08;96798.31;;;30.20;31.22
39411;BME280;26579;43.238;23.124;2023-07-29T09:18:34;96805.00;;;30.45;31.55
39411;BME280;26579;43.238;23.124;2023-07-29T09:21:00;96797.41;;;30.37;30.10
39411;BME280;26579;43.238;23.124;2023-07-29T09:23:26;96792.53;;;30.29;30.49
39411;BME280;26579;43.238;23.124;2023-07-29T09:26:01;96791.63;;;30.50;30.61
39411;BME280;26579;43.238;23.124;2023-07-29T09:28:33;96791.19;;;30.63;30.38
39411;BME280;26579;43.238;23.124;2023-07-29T09:30:59;96795.38;;;30.81;29.33
39411;BME280;26579;43.238;23.124;2023-07-29T09:33:29;96794.03;;;30.79;29.14
39411;BME280;26579;43.238;23.124;2023-07-29T09:35:55;96796.19;;;30.82;29.50
39411;BME280;26579;43.238;23.124;2023-07-29T09:38:27;96798.41;;;30.90;28.59
39411;BME280;26579;43.238;23.124;2023-07-29T09:40:55;96778.00;;;30.62;28.59
39411;BME280;26579;43.238;23.124;2023-07-29T09:43:25;96786.16;;;30.77;29.93
39411;BME280;26579;43.238;23.124;2023-07-29T09:45:52;96788.44;;;30.90;29.29
39411;BME280;26579;43.238;23.124;2023-07-29T09:48:22;96778.06;;;31.04;29.20
39411;BME280;26579;43.238;23.124;2023-07-29T09:50:48;96789.34;;;31.06;28.81
39411;BME280;26579;43.238;23.124;2023-07-29T09:53:14;96780.91;;;30.87;27.74
39411;BME280;26579;43.238;23.124;2023-07-29T09:55:40;96778.19;;;30.82;28.64
39411;BME280;26579;43.238;23.124;2023-07-29T09:58:11;96780.72;;;30.99;28.91
39411;BME280;26579;43.238;23.124;2023-07-29T10:00:37;96779.47;;;31.17;28.79
39411;BME280;26579;43.238;23.124;2023-07-29T10:03:03;96776.28;;;31.25;28.30
39411;BME280;26579;43.238;23.124;2023-07-29T10:05:29;96770.31;;;31.18;27.55
39411;BME280;26579;43.238;23.124;2023-07-29T10:07:55;96777.44;;;31.40;28.29
39411;BME280;26579;43.238;23.124;2023-07-29T10:10:22;96774.78;;;31.50;27.64
39411;BME280;26579;43.238;23.124;2023-07-29T10:12:48;96768.34;;;31.51;27.54
39411;BME280;26579;43.238;23.124;2023-07-29T10:15:15;96774.59;;;31.67;28.27
39411;BME280;26579;43.238;23.124;2023-07-29T10:17:40;96770.25;;;31.55;27.20
39411;BME280;26579;43.238;23.124;2023-07-29T10:20:08;96771.88;;;31.67;27.95
39411;BME280;26579;43.238;23.124;2023-07-29T10:22:39;96762.97;;;31.56;27.13
39411;BME280;26579;43.238;23.124;2023-07-29T10:25:15;96766.25;;;31.68;28.08
39411;BME280;26579;43.238;23.124;2023-07-29T10:28:06;96755.47;;;31.73;27.95
39411;BME280;26579;43.238;23.124;2023-07-29T10:30:33;96757.09;;;31.64;27.45
39411;BME280;26579;43.238;23.124;2023-07-29T10:33:02;96757.94;;;31.85;27.36
39411;BME280;26579;43.238;23.124;2023-07-29T10:35:29;96747.97;;;31.80;27.26
39411;BME280;26579;43.238;23.124;2023-07-29T10:37:55;96746.38;;;31.79;27.44
39411;BME280;26579;43.238;23.124;2023-07-29T10:40:21;96747.50;;;31.99;27.79
39411;BME280;26579;43.238;23.124;2023-07-29T10:43:10;96759.88;;;31.95;26.70
39411;BME280;26579;43.238;23.124;2023-07-29T10:45:40;96752.88;;;31.99;26.38
39411;BME280;26579;43.238;23.124;2023-07-29T10:48:13;96745.53;;;31.79;27.44
39411;BME280;26579;43.238;23.124;2023-07-29T10:53:58;96748.78;;;31.76;27.68
39411;BME280;26579;43.238;23.124;2023-07-29T10:56:27;96749.25;;;31.52;27.43
39411;BME280;26579;43.238;23.124;2023-07-29T10:58:55;96746.81;;;31.56;28.49
39411;BME280;26579;43.238;23.124;2023-07-29T11:01:28;96751.16;;;31.67;28.23
39411;BME280;26579;43.238;23.124;2023-07-29T11:12:43;96752.22;;;31.56;27.90
39411;BME280;26579;43.238;23.124;2023-07-29T11:17:35;96751.75;;;31.11;27.49
39411;BME280;26579;43.238;23.124;2023-07-29T11:20:03;96750.16;;;31.21;28.03
39411;BME280;26579;43.238;23.124;2023-07-29T11:22:29;96750.22;;;31.31;28.11
39411;BME280;26579;43.238;23.124;2023-07-29T11:24:55;96752.97;;;31.36;27.54
39411;BME280;26579;43.238;23.124;2023-07-29T11:27:21;96753.16;;;31.29;27.50
39411;BME280;26579;43.238;23.124;2023-07-29T11:29:47;96745.28;;;31.12;27.87
39411;BME280;26579;43.238;23.124;2023-07-29T11:32:14;96741.13;;;30.84;27.08
39411;BME280;26579;43.238;23.124;2023-07-29T11:34:41;96749.25;;;31.00;27.57
39411;BME280;26579;43.238;23.124;2023-07-29T11:37:09;96740.31;;;30.89;28.23
39411;BME280;26579;43.238;23.124;2023-07-29T11:39:42;96738.72;;;30.88;28.11
39411;BME280;26579;43.238;23.124;2023-07-29T11:42:12;96745.06;;;30.77;28.34
39411;BME280;26579;43.238;23.124;2023-07-29T11:44:38;96745.53;;;30.68;28.34
39411;BME280;26579;43.238;23.124;2023-07-29T11:47:08;96736.91;;;30.61;27.73
39411;BME280;26579;43.238;23.124;2023-07-29T11:49:34;96754.19;;;30.76;27.73
39411;BME280;26579;43.238;23.124;2023-07-29T11:52:01;96749.31;;;30.67;26.93
39411;BME280;26579;43.238;23.124;2023-07-29T11:54:27;96732.91;;;30.64;27.16
39411;BME280;26579;43.238;23.124;2023-07-29T11:56:53;96743.66;;;30.64;27.85
39411;BME280;26579;43.238;23.124;2023-07-29T11:59:20;96729.25;;;30.80;27.72
39411;BME280;26579;43.238;23.124;2023-07-29T12:01:46;96745.25;;;31.02;27.15
39411;BME280;26579;43.238;23.124;2023-07-29T12:04:12;96734.22;;;31.04;26.37
39411;BME280;26579;43.238;23.124;2023-07-29T12:06:39;96739.84;;;30.97;26.19
39411;BME280;26579;43.238;23.124;2023-07-29T12:09:05;96738.78;;;30.98;26.14
39411;BME280;26579;43.238;23.124;2023-07-29T12:11:31;96738.25;;;31.01;26.97
39411;BME280;26579;43.238;23.124;2023-07-29T12:13:59;96731.78;;;30.97;27.02
39411;BME280;26579;43.238;23.124;2023-07-29T12:16:25;96741.78;;;31.07;26.37
39411;BME280;26579;43.238;23.124;2023-07-29T12:18:51;96741.47;;;31.03;27.60
39411;BME280;26579;43.238;23.124;2023-07-29T12:21:18;96742.28;;;31.04;27.13
39411;BME280;26579;43.238;23.124;2023-07-29T12:23:44;96731.19;;;30.85;27.24
39411;BME280;26579;43.238;23.124;2023-07-29T12:26:10;96745.69;;;30.84;27.78
39411;BME280;26579;43.238;23.124;2023-07-29T12:28:36;96748.63;;;30.82;28.18
39411;BME280;26579;43.238;23.124;2023-07-29T12:31:01;96735.31;;;30.65;29.30
39411;BME280;26579;43.238;23.124;2023-07-29T12:33:34;96741.81;;;30.75;29.55
39411;BME280;26579;43.238;23.124;2023-07-29T12:36:01;96741.38;;;30.83;27.67
39411;BME280;26579;43.238;23.124;2023-07-29T12:38:27;96742.75;;;30.90;27.91
39411;BME280;26579;43.238;23.124;2023-07-29T12:40:53;96736.63;;;31.00;29.44
39411;BME280;26579;43.238;23.124;2023-07-29T12:43:18;96737.53;;;31.16;28.27
39411;BME280;26579;43.238;23.124;2023-07-29T12:45:44;96728.97;;;31.24;28.28
39411;BME280;26579;43.238;23.124;2023-07-29T12:48:11;96732.81;;;31.44;27.88
39411;BME280;26579;43.238;23.124;2023-07-29T12:50:37;96730.19;;;31.69;27.60
39411;BME280;26579;43.238;23.124;2023-07-29T12:53:06;96734.78;;;31.69;27.04
39411;BME280;26579;43.238;23.124;2023-07-29T12:55:32;96728.31;;;31.70;27.40
39411;BME280;26579;43.238;23.124;2023-07-29T12:57:57;96732.16;;;31.94;27.17
39411;BME280;26579;43.238;23.124;2023-07-29T13:00:23;96734.59;;;32.11;26.53
39411;BME280;26579;43.238;23.124;2023-07-29T13:02:49;96730.56;;;32.24;25.27
39411;BME280;26579;43.238;23.124;2023-07-29T13:05:14;96739.47;;;32.45;25.34